Map

Track Data

SID SEASON NUMBER BASIN SUBBASIN NAME ISO_TIME NATURE LAT LON WMO_WIND WMO_PRES WMO_AGENCY TRACK_TYPE DIST2LAND LANDFALL IFLAG USA_AGENCY USA_ATCF_ID USA_LAT USA_LON USA_RECORD USA_STATUS USA_WIND USA_PRES USA_SSHS USA_R34_NE USA_R34_SE USA_R34_SW USA_R34_NW USA_R50_NE USA_R50_SE USA_R50_SW USA_R50_NW USA_R64_NE USA_R64_SE USA_R64_SW USA_R64_NW USA_POCI USA_ROCI USA_RMW USA_EYE TOKYO_LAT TOKYO_LON TOKYO_GRADE TOKYO_WIND TOKYO_PRES TOKYO_R50_DIR TOKYO_R50_LONG TOKYO_R50_SHORT TOKYO_R30_DIR TOKYO_R30_LONG TOKYO_R30_SHORT TOKYO_LAND CMA_LAT CMA_LON CMA_CAT CMA_WIND CMA_PRES HKO_LAT HKO_LON HKO_CAT HKO_WIND HKO_PRES NEWDELHI_LAT NEWDELHI_LON NEWDELHI_GRADE NEWDELHI_WIND NEWDELHI_PRES NEWDELHI_CI NEWDELHI_DP NEWDELHI_POCI REUNION_LAT REUNION_LON REUNION_TYPE REUNION_WIND REUNION_PRES REUNION_TNUM REUNION_CI REUNION_RMW REUNION_R34_NE REUNION_R34_SE REUNION_R34_SW REUNION_R34_NW REUNION_R50_NE REUNION_R50_SE REUNION_R50_SW REUNION_R50_NW REUNION_R64_NE REUNION_R64_SE REUNION_R64_SW REUNION_R64_NW BOM_LAT BOM_LON BOM_TYPE BOM_WIND BOM_PRES BOM_TNUM BOM_CI BOM_RMW BOM_R34_NE BOM_R34_SE BOM_R34_SW BOM_R34_NW BOM_R50_NE BOM_R50_SE BOM_R50_SW BOM_R50_NW BOM_R64_NE BOM_R64_SE BOM_R64_SW BOM_R64_NW BOM_ROCI BOM_POCI BOM_EYE BOM_POS_METHOD BOM_PRES_METHOD NADI_LAT NADI_LON NADI_CAT NADI_WIND NADI_PRES WELLINGTON_LAT WELLINGTON_LON WELLINGTON_WIND WELLINGTON_PRES DS824_LAT DS824_LON DS824_STAGE DS824_WIND DS824_PRES TD9636_LAT TD9636_LON TD9636_STAGE TD9636_WIND TD9636_PRES TD9635_LAT TD9635_LON TD9635_WIND TD9635_PRES TD9635_ROCI NEUMANN_LAT NEUMANN_LON NEUMANN_CLASS NEUMANN_WIND NEUMANN_PRES MLC_LAT MLC_LON MLC_CLASS MLC_WIND MLC_PRES USA_GUST BOM_GUST BOM_GUST_PER REUNION_GUST REUNION_GUST_PER USA_SEAHGT USA_SEARAD_NE USA_SEARAD_SE USA_SEARAD_SW USA_SEARAD_NW STORM_SPEED STORM_DIR
1911240N14141 1911 55 WP MM NOT_NAMED 1911-08-27 21:00:00 NR 14.1000 141.200 main 1707 1690 __________O___ -1 14.1000 141.200 7 35 345
1911240N14141 1911 55 WP MM NOT_NAMED 1911-08-28 00:00:00 NR 15.7954 140.734 main 1689 1683 __________P___ -1 15.7954 140.734 7 34 344
1911240N14141 1911 55 WP MM NOT_NAMED 1911-08-28 03:00:00 NR 17.3736 140.250 main 1694 1650 __________P___ -1 17.3736 140.250 7 31 342
1911240N14141 1911 55 WP MM NOT_NAMED 1911-08-28 06:00:00 NR 18.7145 139.741 main 1645 1521 __________P___ -1 18.7145 139.741 7 25 337
1911240N14141 1911 55 WP MM NOT_NAMED 1911-08-28 09:00:00 NR 19.7000 139.200 main 1521 1447 __________O___ -1 19.7000 139.200 7 19 326
1911240N14141 1911 55 WP MM NOT_NAMED 1911-08-28 12:00:00 NR 20.2579 138.626 main 1432 1386 __________P___ -1 20.2579 138.626 7 14 306
1911240N14141 1911 55 WP MM NOT_NAMED 1911-08-28 15:00:00 NR 20.4941 138.036 main 1380 1345 __________P___ -1 20.4941 138.036 7 11 285
1911240N14141 1911 55 WP MM NOT_NAMED 1911-08-28 18:00:00 NR 20.5583 137.454 main 1345 1316 __________P___ -1 20.5583 137.454 7 11 276
1911240N14141 1911 55 WP MM NOT_NAMED 1911-08-28 21:00:00 NR 20.6000 136.900 main 1316 1273 __________O___ -1 20.6000 136.900 4 11 287
1911240N14141 1911 55 WP MM NOT_NAMED 1911-08-29 00:00:00 NR 20.8666 136.380 main 1263 1221 __________P___ -1 20.8666 136.380 4 11 300
1911240N14141 1911 55 WP MM NOT_NAMED 1911-08-29 03:00:00 NR 21.1369 135.890 main 1221 1173 __________P___ -1 21.1369 135.890 4 10 301
1911240N14141 1911 55 WP MM NOT_NAMED 1911-08-29 06:00:00 NR 21.3887 135.430 main 1169 1133 __________P___ -1 21.3887 135.430 4 10 299
1911240N14141 1911 55 WP MM NOT_NAMED 1911-08-29 09:00:00 NR 21.6000 135.000 main 1133 1108 __________O___ -1 21.6000 135.000 4 8 294
1911240N14141 1911 55 WP MM NOT_NAMED 1911-08-29 12:00:00 NR 21.7384 134.599 main 1108 1084 __________P___ -1 21.7384 134.599 4 8 288
1911240N14141 1911 55 WP MM NOT_NAMED 1911-08-29 15:00:00 NR 21.8366 134.226 main 1084 1064 __________P___ -1 21.8366 134.226 4 7 285
1911240N14141 1911 55 WP MM NOT_NAMED 1911-08-29 18:00:00 NR 21.9166 133.865 main 1064 1042 __________P___ -1 21.9166 133.865 4 7 284
1911240N14141 1911 55 WP MM NOT_NAMED 1911-08-29 21:00:00 NR 22.0000 133.500 main 1042 1022 __________O___ -1 22.0000 133.500 4 7 286
1911240N14141 1911 55 WP MM NOT_NAMED 1911-08-30 00:00:00 NR 22.1176 133.107 main 1022 1002 __________P___ -1 22.1176 133.107 4 8 288
1911240N14141 1911 55 WP MM NOT_NAMED 1911-08-30 03:00:00 NR 22.2422 132.707 main 1002 973 __________P___ -1 22.2422 132.707 4 8 289
1911240N14141 1911 55 WP MM NOT_NAMED 1911-08-30 06:00:00 NR 22.3707 132.304 main 973 956 __________P___ -1 22.3707 132.304 4 8 289
1911240N14141 1911 55 WP MM NOT_NAMED 1911-08-30 09:00:00 NR 22.5000 131.900 main 956 941 __________O___ -1 22.5000 131.900 4 8 289
1911240N14141 1911 55 WP MM NOT_NAMED 1911-08-30 12:00:00 NR 22.6203 131.520 main 941 928 __________P___ -1 22.6203 131.520 4 7 289
1911240N14141 1911 55 WP MM NOT_NAMED 1911-08-30 15:00:00 NR 22.7415 131.137 main 927 904 __________P___ -1 22.7415 131.137 4 8 289
1911240N14141 1911 55 WP MM NOT_NAMED 1911-08-30 18:00:00 NR 22.8670 130.735 main 904 870 __________P___ -1 22.8670 130.735 4 8 289
1911240N14141 1911 55 WP MM NOT_NAMED 1911-08-30 21:00:00 NR 23.0000 130.300 main 870 818 __________O___ -1 23.0000 130.300 4 9 288
1911240N14141 1911 55 WP MM NOT_NAMED 1911-08-31 00:00:00 NR 23.1515 129.783 main 815 763 __________P___ -1 23.1515 129.783 4 10 287
1911240N14141 1911 55 WP MM NOT_NAMED 1911-08-31 03:00:00 NR 23.3084 129.236 main 753 699 __________P___ -1 23.3084 129.236 4 10 287
1911240N14141 1911 55 WP MM NOT_NAMED 1911-08-31 06:00:00 NR 23.4610 128.695 main 699 647 __________P___ -1 23.4610 128.695 4 10 287
1911240N14141 1911 55 WP MM NOT_NAMED 1911-08-31 09:00:00 NR 23.6000 128.200 main 647 604 __________O___ -1 23.6000 128.200 4 8 287
1911240N14141 1911 55 WP MM NOT_NAMED 1911-08-31 12:00:00 NR 23.7132 127.811 main 604 572 __________P___ -1 23.7132 127.811 4 7 288
1911240N14141 1911 55 WP MM NOT_NAMED 1911-08-31 15:00:00 NR 23.8135 127.469 main 572 540 __________P___ -1 23.8135 127.469 4 6 288
1911240N14141 1911 55 WP MM NOT_NAMED 1911-08-31 18:00:00 NR 23.9071 127.143 main 530 498 __________P___ -1 23.9071 127.143 4 6 287
1911240N14141 1911 55 WP MM NOT_NAMED 1911-08-31 21:00:00 NR 24.0000 126.800 main 498 465 __________O___ -1 24.0000 126.800 4 6 288
1911240N14141 1911 55 WP MM NOT_NAMED 1911-09-01 00:00:00 NR 24.1061 126.473 main 465 423 __________P___ -1 24.1061 126.473 4 7 289
1911240N14141 1911 55 WP MM NOT_NAMED 1911-09-01 03:00:00 NR 24.2115 126.114 main 423 381 __________P___ -1 24.2115 126.114 4 8 286
1911240N14141 1911 55 WP MM NOT_NAMED 1911-09-01 06:00:00 NR 24.3114 125.673 main 381 320 __________P___ -1 24.3114 125.673 4 9 282
1911240N14141 1911 55 WP MM NOT_NAMED 1911-09-01 09:00:00 NR 24.4000 125.100 main 320 238 __________O___ -1 24.4000 125.100 4 13 277
1911240N14141 1911 55 WP MM NOT_NAMED 1911-09-01 12:00:00 NR 24.4650 124.247 main 228 141 __________P___ -1 24.4650 124.247 4 17 274
1911240N14141 1911 55 WP MM NOT_NAMED 1911-09-01 15:00:00 NR 24.5142 123.277 main 141 51 __________P___ -1 24.5142 123.277 4 18 273
1911240N14141 1911 55 WP MM NOT_NAMED 1911-09-01 18:00:00 NR 24.5556 122.319 main 41 0 __________P___ -1 24.5556 122.319 4 16 273
1911240N14141 1911 55 WP MM NOT_NAMED 1911-09-01 21:00:00 NR 24.6000 121.500 main 0 0 __________O___ -1 24.6000 121.500 4 12 275
1911240N14141 1911 55 WP MM NOT_NAMED 1911-09-02 00:00:00 NR 24.6523 120.996 main 0 0 __________P___ -1 24.6523 120.996 4 8 278
1911240N14141 1911 55 WP MM NOT_NAMED 1911-09-02 03:00:00 NR 24.7160 120.642 main 15 15 __________P___ -1 24.7160 120.642 4 6 284
1911240N14141 1911 55 WP MM NOT_NAMED 1911-09-02 06:00:00 NR 24.7969 120.367 main 37 37 __________P___ -1 24.7969 120.367 4 5 290
1911240N14141 1911 55 WP MM NOT_NAMED 1911-09-02 09:00:00 NR 24.9000 120.100 main 67 34 __________O___ -1 24.9000 120.100 7 6 288
1911240N14141 1911 55 WP MM NOT_NAMED 1911-09-02 12:00:00 NR 24.9877 119.727 main 34 15 __________P___ -1 24.9877 119.727 7 7 287
1911240N14141 1911 55 WP MM NOT_NAMED 1911-09-02 15:00:00 NR 25.1024 119.349 main 10 0 __________P___ -1 25.1024 119.349 7 7 292
1911240N14141 1911 55 WP MM NOT_NAMED 1911-09-02 18:00:00 NR 25.2658 118.971 main 0 0 __________P___ -1 25.2658 118.971 7 8 300
1911240N14141 1911 55 WP MM NOT_NAMED 1911-09-02 21:00:00 NR 25.5000 118.600 main 0 0 __________O___ -1 25.5000 118.600 7 9 308
1911240N14141 1911 55 WP MM NOT_NAMED 1911-09-03 00:00:00 NR 25.8162 118.199 main 0 0 __________P___ -1 25.8162 118.199 7 10 315
1911240N14141 1911 55 WP MM NOT_NAMED 1911-09-03 03:00:00 NR 26.2030 117.812 main 0 0 __________P___ -1 26.2030 117.812 7 11 321
1911240N14141 1911 55 WP MM NOT_NAMED 1911-09-03 06:00:00 NR 26.6382 117.468 main 0 0 __________P___ -1 26.6382 117.468 7 11 329
1911240N14141 1911 55 WP MM NOT_NAMED 1911-09-03 09:00:00 NR 27.1000 117.200 main 0 0 __________O___ -1 27.1000 117.200 7 10 338
1911240N14141 1911 55 WP MM NOT_NAMED 1911-09-03 12:00:00 NR 27.5894 117.029 main 0 0 __________P___ -1 27.5894 117.029 7 10 347
1911240N14141 1911 55 WP MM NOT_NAMED 1911-09-03 15:00:00 NR 28.0944 116.936 main 0 0 __________P___ -1 28.0944 116.936 7 10 354
1911240N14141 1911 55 WP MM NOT_NAMED 1911-09-03 18:00:00 NR 28.5771 116.901 main 0 0 __________P___ -1 28.5771 116.901 7 9 357
1911240N14141 1911 55 WP MM NOT_NAMED 1911-09-03 21:00:00 NR 29.0000 116.900 main 0 0 __________O___ -1 29.0000 116.900 7 7 358
1911240N14141 1911 55 WP MM NOT_NAMED 1911-09-04 00:00:00 NR 29.3105 116.880 main 0 0 __________P___ -1 29.3105 116.880 7 6 0
1911240N14141 1911 55 WP MM NOT_NAMED 1911-09-04 03:00:00 NR 29.5598 116.890 main 0 0 __________P___ -1 29.5598 116.890 7 5 4
1911240N14141 1911 55 WP MM NOT_NAMED 1911-09-04 06:00:00 NR 29.7793 116.930 main 0 0 __________P___ -1 29.7793 116.930 7 5 13
1911240N14141 1911 55 WP MM NOT_NAMED 1911-09-04 09:00:00 NR 30.0000 117.000 main 0 0 __________O___ -1 30.0000 117.000 7 5 15
1911240N14141 1911 55 WP MM NOT_NAMED 1911-09-04 12:00:00 NR 30.2759 117.080 main 0 0 __________P___ -1 30.2759 117.080 7 6 16
1911240N14141 1911 55 WP MM NOT_NAMED 1911-09-04 15:00:00 NR 30.5574 117.190 main 0 0 __________P___ -1 30.5574 117.190 7 6 21
1911240N14141 1911 55 WP MM NOT_NAMED 1911-09-04 18:00:00 NR 30.8352 117.330 main 0 0 __________P___ -1 30.8352 117.330 7 6 26
1911240N14141 1911 55 WP MM NOT_NAMED 1911-09-04 21:00:00 NR 31.1000 117.500 main 0 0 __________O___ -1 31.1000 117.500 7 6 31
1911240N14141 1911 55 WP MM NOT_NAMED 1911-09-05 00:00:00 NR 31.3556 117.692 main 0 0 __________P___ -1 31.3556 117.692 7 6 35
1911240N14141 1911 55 WP MM NOT_NAMED 1911-09-05 03:00:00 NR 31.5950 117.912 main 0 0 __________P___ -1 31.5950 117.912 7 6 41
1911240N14141 1911 55 WP MM NOT_NAMED 1911-09-05 06:00:00 NR 31.8119 118.151 main 0 0 __________P___ -1 31.8119 118.151 7 6 46
1911240N14141 1911 55 WP MM NOT_NAMED 1911-09-05 09:00:00 NR 32.0000 118.400 main 0 0 __________O___ -1 32.0000 118.400 7 5 53
1911240N14141 1911 55 WP MM NOT_NAMED 1911-09-05 12:00:00 NR 32.0919 118.597 main 0 0 __________P___ -1 32.0919 118.597 7 4 64
1911240N14141 1911 55 WP MM NOT_NAMED 1911-09-05 15:00:00 NR 32.1659 118.808 main 0 0 __________P___ -1 32.1659 118.808 7 4 64
1911240N14141 1911 55 WP MM NOT_NAMED 1911-09-05 18:00:00 NR 32.2821 119.064 main 0 0 __________P___ -1 32.2821 119.064 7 6 56
1911240N14141 1911 55 WP MM NOT_NAMED 1911-09-05 21:00:00 NR 32.5000 119.400 main 0 0 __________O___ -1 32.5000 119.400 7 9 47
1911240N14141 1911 55 WP MM NOT_NAMED 1911-09-06 00:00:00 NR 32.8969 119.858 main 0 0 __________P___ -1 32.8969 119.858 7 12 43
1911240N14141 1911 55 WP MM NOT_NAMED 1911-09-06 03:00:00 NR 33.3959 120.400 main 0 0 __________P___ -1 33.3959 120.400 7 14 42
1911240N14141 1911 55 WP MM NOT_NAMED 1911-09-06 06:00:00 NR 33.9468 120.992 main 51 51 __________P___ -1 33.9468 120.992 7 15 42
1911240N14141 1911 55 WP MM NOT_NAMED 1911-09-06 09:00:00 NR 34.5000 121.600 main 121 121 __________O___ -1 34.5000 121.600 7 13 42
1911240N14141 1911 55 WP MM NOT_NAMED 1911-09-06 12:00:00 NR 34.9234 122.055 main 177 167 __________P___ -1 34.9234 122.055 7 11 42
1911240N14141 1911 55 WP MM NOT_NAMED 1911-09-06 15:00:00 NR 35.3501 122.531 main 157 127 __________P___ -1 35.3501 122.531 7 13 44
1911240N14141 1911 55 WP MM NOT_NAMED 1911-09-06 18:00:00 NR 35.8272 123.116 main 132 119 __________P___ -1 35.8272 123.116 7 15 47
1911240N14141 1911 55 WP MM NOT_NAMED 1911-09-06 21:00:00 NR 36.4000 123.900 main 136 71 __________O___ -1 36.4000 123.900 7 21 49
1911240N14141 1911 55 WP MM NOT_NAMED 1911-09-07 00:00:00 NR 37.1675 125.051 main 58 0 __________P___ -1 37.1675 125.051 7 26 51
1911240N14141 1911 55 WP MM NOT_NAMED 1911-09-07 03:00:00 NR 38.0119 126.419 main 0 0 __________P___ -1 38.0119 126.419 7 28 53
1911240N14141 1911 55 WP MM NOT_NAMED 1911-09-07 06:00:00 NR 38.8489 127.880 main 0 0 __________P___ -1 38.8489 127.880 7 27 55
1911240N14141 1911 55 WP MM NOT_NAMED 1911-09-07 09:00:00 NR 39.6000 129.300 main 89 87 __________O___ -1 39.6000 129.300 7 24 57
1911240N14141 1911 55 WP MM NOT_NAMED 1911-09-07 12:00:00 NR 40.1872 130.515 main 94 94 __________P___ -1 40.1872 130.515 7 21 59
1911240N14141 1911 55 WP MM NOT_NAMED 1911-09-07 15:00:00 NR 40.6859 131.647 main 159 159 __________P___ -1 40.6859 131.647 7 19 61
1911240N14141 1911 55 WP MM NOT_NAMED 1911-09-07 18:00:00 NR 41.1168 132.705 main 178 142 __________P___ -1 41.1168 132.705 7 17 62
1911240N14141 1911 55 WP MM NOT_NAMED 1911-09-07 21:00:00 NR 41.5000 133.700 main 144 121 __________O___ -1 41.5000 133.700 7 16 62
1911240N14141 1911 55 WP MM NOT_NAMED 1911-09-08 00:00:00 NR 41.8800 134.604 main 124 124 __________P___ -1 41.8800 134.604 7 15 61
1911240N14141 1911 55 WP MM NOT_NAMED 1911-09-08 03:00:00 NR 42.2205 135.457 main 142 134 __________P___ -1 42.2205 135.457 7 14 63
1911240N14141 1911 55 WP MM NOT_NAMED 1911-09-08 06:00:00 NR 42.5263 136.331 main 147 145 __________P___ -1 42.5263 136.331 7 15 67
1911240N14141 1911 55 WP MM NOT_NAMED 1911-09-08 09:00:00 NR 42.8000 137.300 main 189 122 __________O___ -1 42.8000 137.300 7 16 71
1911240N14141 1911 55 WP MM NOT_NAMED 1911-09-08 12:00:00 NR 43.0422 138.420 main 122 56 __________P___ -1 43.0422 138.420 7 18 75
1911240N14141 1911 55 WP MM NOT_NAMED 1911-09-08 15:00:00 NR 43.2542 139.671 main 48 0 __________P___ -1 43.2542 139.671 7 19 78
1911240N14141 1911 55 WP MM NOT_NAMED 1911-09-08 18:00:00 NR 43.4387 141.012 main 27 0 __________P___ -1 43.4387 141.012 7 20 80
1911240N14141 1911 55 WP MM NOT_NAMED 1911-09-08 21:00:00 NR 43.6000 142.400 main 0 __________O___ -1 43.6000 142.400 7 20 81

Digital Typhoon Data and Search

About IBTrACS Database

This database is a web-friendly format of International Best Track Archive for Climate Stewardship (IBTrACS), a global best track data archive curated by NOAA dating back to 1842.

Updated: 2021-10-21